sensor_id;sensor_type;location;lat;lon;timestamp;temperature;humidity
37910;DHT22;23741;49.446;8.754;2024-02-16T00:00:34;15.30;68.50
37910;DHT22;23741;49.446;8.754;2024-02-16T00:02:36;15.30;68.50
37910;DHT22;23741;49.446;8.754;2024-02-16T00:04:38;15.30;68.50
37910;DHT22;23741;49.446;8.754;2024-02-16T00:06:40;15.30;68.50
37910;DHT22;23741;49.446;8.754;2024-02-16T00:08:42;15.30;68.50
37910;DHT22;23741;49.446;8.754;2024-02-16T00:10:43;15.30;68.50
37910;DHT22;23741;49.446;8.754;2024-02-16T00:12:46;15.30;68.50
37910;DHT22;23741;49.446;8.754;2024-02-16T00:14:47;15.30;68.60
37910;DHT22;23741;49.446;8.754;2024-02-16T00:16:49;15.20;68.50
37910;DHT22;23741;49.446;8.754;2024-02-16T00:18:51;15.30;68.50
37910;DHT22;23741;49.446;8.754;2024-02-16T00:20:53;15.20;68.50
37910;DHT22;23741;49.446;8.754;2024-02-16T00:22:55;15.20;68.50
37910;DHT22;23741;49.446;8.754;2024-02-16T00:24:57;15.20;68.50
37910;DHT22;23741;49.446;8.754;2024-02-16T00:26:59;15.20;68.50
37910;DHT22;23741;49.446;8.754;2024-02-16T00:29:01;15.20;68.50
37910;DHT22;23741;49.446;8.754;2024-02-16T00:31:03;15.20;68.50
37910;DHT22;23741;49.446;8.754;2024-02-16T00:33:07;15.20;68.50
37910;DHT22;23741;49.446;8.754;2024-02-16T00:35:09;15.20;68.60
37910;DHT22;23741;49.446;8.754;2024-02-16T00:37:12;15.20;68.70
37910;DHT22;23741;49.446;8.754;2024-02-16T00:39:14;15.20;68.70
37910;DHT22;23741;49.446;8.754;2024-02-16T00:41:19;15.20;68.60
37910;DHT22;23741;49.446;8.754;2024-02-16T00:43:21;15.10;68.60
37910;DHT22;23741;49.446;8.754;2024-02-16T00:45:23;15.20;68.60
37910;DHT22;23741;49.446;8.754;2024-02-16T00:47:25;15.20;68.60
37910;DHT22;23741;49.446;8.754;2024-02-16T00:49:28;15.10;68.60
37910;DHT22;23741;49.446;8.754;2024-02-16T00:51:30;15.10;68.60
37910;DHT22;23741;49.446;8.754;2024-02-16T00:53:32;15.10;68.60
37910;DHT22;23741;49.446;8.754;2024-02-16T00:55:34;15.10;68.70
37910;DHT22;23741;49.446;8.754;2024-02-16T00:57:35;15.10;68.70
37910;DHT22;23741;49.446;8.754;2024-02-16T00:59:37;15.10;68.70
37910;DHT22;23741;49.446;8.754;2024-02-16T01:01:39;15.10;68.70
37910;DHT22;23741;49.446;8.754;2024-02-16T01:03:41;15.10;68.70
37910;DHT22;23741;49.446;8.754;2024-02-16T01:05:43;15.10;68.70
37910;DHT22;23741;49.446;8.754;2024-02-16T01:07:45;15.10;68.70
37910;DHT22;23741;49.446;8.754;2024-02-16T01:09:47;15.10;68.60
37910;DHT22;23741;49.446;8.754;2024-02-16T01:11:50;15.10;68.60
37910;DHT22;23741;49.446;8.754;2024-02-16T01:13:52;15.10;68.70
37910;DHT22;23741;49.446;8.754;2024-02-16T01:15:54;15.10;68.70
37910;DHT22;23741;49.446;8.754;2024-02-16T01:17:55;15.10;68.80
37910;DHT22;23741;49.446;8.754;2024-02-16T01:19:58;15.10;68.80
37910;DHT22;23741;49.446;8.754;2024-02-16T01:22:00;15.00;69.50
37910;DHT22;23741;49.446;8.754;2024-02-16T01:24:02;15.10;68.70
37910;DHT22;23741;49.446;8.754;2024-02-16T01:26:04;15.00;68.70
37910;DHT22;23741;49.446;8.754;2024-02-16T01:28:05;15.00;68.70
37910;DHT22;23741;49.446;8.754;2024-02-16T01:30:07;15.00;68.80
37910;DHT22;23741;49.446;8.754;2024-02-16T01:32:09;15.00;68.80
37910;DHT22;23741;49.446;8.754;2024-02-16T01:34:11;15.00;68.70
37910;DHT22;23741;49.446;8.754;2024-02-16T01:36:13;15.00;68.70
37910;DHT22;23741;49.446;8.754;2024-02-16T01:38:15;15.00;68.80
37910;DHT22;23741;49.446;8.754;2024-02-16T01:40:17;15.00;68.90
37910;DHT22;23741;49.446;8.754;2024-02-16T01:42:19;15.00;68.80
37910;DHT22;23741;49.446;8.754;2024-02-16T01:44:21;15.00;68.90
37910;DHT22;23741;49.446;8.754;2024-02-16T01:46:23;15.00;68.90
37910;DHT22;23741;49.446;8.754;2024-02-16T01:48:25;15.00;68.90
37910;DHT22;23741;49.446;8.754;2024-02-16T01:50:27;15.00;68.90
37910;DHT22;23741;49.446;8.754;2024-02-16T01:52:31;15.00;68.90
37910;DHT22;23741;49.446;8.754;2024-02-16T01:54:35;15.00;69.00
37910;DHT22;23741;49.446;8.754;2024-02-16T01:56:37;15.00;69.00
37910;DHT22;23741;49.446;8.754;2024-02-16T01:58:39;15.00;69.00
37910;DHT22;23741;49.446;8.754;2024-02-16T02:00:41;14.90;69.70
37910;DHT22;23741;49.446;8.754;2024-02-16T02:02:44;15.00;68.90
37910;DHT22;23741;49.446;8.754;2024-02-16T02:04:46;15.00;69.00
37910;DHT22;23741;49.446;8.754;2024-02-16T02:06:48;15.00;69.00
37910;DHT22;23741;49.446;8.754;2024-02-16T02:08:50;14.90;68.90
37910;DHT22;23741;49.446;8.754;2024-02-16T02:10:52;15.00;69.00
37910;DHT22;23741;49.446;8.754;2024-02-16T02:12:54;14.90;69.00
37910;DHT22;23741;49.446;8.754;2024-02-16T02:14:55;14.90;69.10
37910;DHT22;23741;49.446;8.754;2024-02-16T02:16:57;14.90;69.00
37910;DHT22;23741;49.446;8.754;2024-02-16T02:19:00;14.90;69.10
37910;DHT22;23741;49.446;8.754;2024-02-16T02:21:02;14.90;69.10
37910;DHT22;23741;49.446;8.754;2024-02-16T02:23:04;14.90;69.10
37910;DHT22;23741;49.446;8.754;2024-02-16T02:25:06;14.90;69.20
37910;DHT22;23741;49.446;8.754;2024-02-16T02:27:08;14.90;69.10
37910;DHT22;23741;49.446;8.754;2024-02-16T02:29:13;14.90;69.10
37910;DHT22;23741;49.446;8.754;2024-02-16T02:31:15;14.90;69.20
37910;DHT22;23741;49.446;8.754;2024-02-16T02:33:16;14.90;69.20
37910;DHT22;23741;49.446;8.754;2024-02-16T02:35:18;14.90;69.20
37910;DHT22;23741;49.446;8.754;2024-02-16T02:37:20;14.90;69.10
37910;DHT22;23741;49.446;8.754;2024-02-16T02:39:22;14.90;69.10
37910;DHT22;23741;49.446;8.754;2024-02-16T02:41:24;14.90;70.00
37910;DHT22;23741;49.446;8.754;2024-02-16T02:43:25;14.90;69.10
37910;DHT22;23741;49.446;8.754;2024-02-16T02:45:27;14.90;69.10
37910;DHT22;23741;49.446;8.754;2024-02-16T02:47:29;14.90;69.10
37910;DHT22;23741;49.446;8.754;2024-02-16T02:49:31;14.90;69.10
37910;DHT22;23741;49.446;8.754;2024-02-16T02:51:35;14.80;69.00
37910;DHT22;23741;49.446;8.754;2024-02-16T02:53:37;14.80;69.00
37910;DHT22;23741;49.446;8.754;2024-02-16T02:55:39;14.80;69.00
37910;DHT22;23741;49.446;8.754;2024-02-16T02:57:40;14.80;69.00
37910;DHT22;23741;49.446;8.754;2024-02-16T02:59:42;14.80;69.00
37910;DHT22;23741;49.446;8.754;2024-02-16T03:01:44;14.80;69.00
37910;DHT22;23741;49.446;8.754;2024-02-16T03:03:47;14.80;69.00
37910;DHT22;23741;49.446;8.754;2024-02-16T03:05:49;14.80;69.00
37910;DHT22;23741;49.446;8.754;2024-02-16T03:07:51;14.80;69.10
37910;DHT22;23741;49.446;8.754;2024-02-16T03:09:53;14.80;69.10
37910;DHT22;23741;49.446;8.754;2024-02-16T03:11:55;14.80;69.10
37910;DHT22;23741;49.446;8.754;2024-02-16T03:13:57;14.80;69.20
37910;DHT22;23741;49.446;8.754;2024-02-16T03:15:58;14.80;69.20
37910;DHT22;23741;49.446;8.754;2024-02-16T03:18:00;14.70;69.20
37910;DHT22;23741;49.446;8.754;2024-02-16T03:20:02;14.80;69.20
37910;DHT22;23741;49.446;8.754;2024-02-16T03:22:04;14.70;69.20
37910;DHT22;23741;49.446;8.754;2024-02-16T03:24:06;14.70;69.20
37910;DHT22;23741;49.446;8.754;2024-02-16T03:26:17;14.70;69.40
37910;DHT22;23741;49.446;8.754;2024-02-16T03:28:19;14.70;69.30
37910;DHT22;23741;49.446;8.754;2024-02-16T03:30:22;14.70;69.20
37910;DHT22;23741;49.446;8.754;2024-02-16T03:32:23;14.70;69.20
37910;DHT22;23741;49.446;8.754;2024-02-16T03:34:25;14.70;69.20
37910;DHT22;23741;49.446;8.754;2024-02-16T03:36:28;14.70;69.20
37910;DHT22;23741;49.446;8.754;2024-02-16T03:38:30;14.70;69.30
37910;DHT22;23741;49.446;8.754;2024-02-16T03:40:32;14.70;69.30
37910;DHT22;23741;49.446;8.754;2024-02-16T03:42:34;14.70;69.30
37910;DHT22;23741;49.446;8.754;2024-02-16T03:44:36;14.70;69.30
37910;DHT22;23741;49.446;8.754;2024-02-16T03:46:37;14.70;69.20
37910;DHT22;23741;49.446;8.754;2024-02-16T03:48:39;14.70;69.30
37910;DHT22;23741;49.446;8.754;2024-02-16T03:50:42;14.70;69.30
37910;DHT22;23741;49.446;8.754;2024-02-16T03:52:43;14.70;69.30
37910;DHT22;23741;49.446;8.754;2024-02-16T03:54:45;14.70;69.30
37910;DHT22;23741;49.446;8.754;2024-02-16T03:56:52;14.70;69.30
37910;DHT22;23741;49.446;8.754;2024-02-16T03:58:54;14.70;69.40
37910;DHT22;23741;49.446;8.754;2024-02-16T04:00:56;14.70;69.30
37910;DHT22;23741;49.446;8.754;2024-02-16T04:03:10;14.70;69.30
37910;DHT22;23741;49.446;8.754;2024-02-16T04:05:12;14.70;69.30
37910;DHT22;23741;49.446;8.754;2024-02-16T04:07:15;14.70;69.20
37910;DHT22;23741;49.446;8.754;2024-02-16T04:09:17;14.60;69.10
37910;DHT22;23741;49.446;8.754;2024-02-16T04:11:19;14.60;69.20
37910;DHT22;23741;49.446;8.754;2024-02-16T04:13:21;14.60;69.30
37910;DHT22;23741;49.446;8.754;2024-02-16T04:15:23;14.60;69.30
37910;DHT22;23741;49.446;8.754;2024-02-16T04:17:25;14.60;69.20
37910;DHT22;23741;49.446;8.754;2024-02-16T04:19:27;14.60;69.30
37910;DHT22;23741;49.446;8.754;2024-02-16T04:21:29;14.60;70.00
37910;DHT22;23741;49.446;8.754;2024-02-16T04:23:31;14.60;69.30
37910;DHT22;23741;49.446;8.754;2024-02-16T04:25:33;14.60;69.30
37910;DHT22;23741;49.446;8.754;2024-02-16T04:27:35;14.60;69.40
37910;DHT22;23741;49.446;8.754;2024-02-16T04:29:37;14.60;69.40
37910;DHT22;23741;49.446;8.754;2024-02-16T04:31:40;14.60;69.40
37910;DHT22;23741;49.446;8.754;2024-02-16T04:33:43;14.60;69.40
37910;DHT22;23741;49.446;8.754;2024-02-16T04:35:45;14.60;69.40
37910;DHT22;23741;49.446;8.754;2024-02-16T04:37:50;14.60;69.50
37910;DHT22;23741;49.446;8.754;2024-02-16T04:39:51;14.60;69.40
37910;DHT22;23741;49.446;8.754;2024-02-16T04:41:53;14.60;69.40
37910;DHT22;23741;49.446;8.754;2024-02-16T04:43:55;14.60;69.30
37910;DHT22;23741;49.446;8.754;2024-02-16T04:45:57;14.60;69.40
37910;DHT22;23741;49.446;8.754;2024-02-16T04:48:02;14.60;69.40
37910;DHT22;23741;49.446;8.754;2024-02-16T04:50:05;14.60;69.40
37910;DHT22;23741;49.446;8.754;2024-02-16T04:52:06;14.60;69.40
37910;DHT22;23741;49.446;8.754;2024-02-16T04:54:10;14.60;69.40
37910;DHT22;23741;49.446;8.754;2024-02-16T04:56:13;14.60;69.40
37910;DHT22;23741;49.446;8.754;2024-02-16T04:58:15;14.60;69.30
37910;DHT22;23741;49.446;8.754;2024-02-16T05:00:16;14.60;69.30
37910;DHT22;23741;49.446;8.754;2024-02-16T05:02:18;14.60;69.20
37910;DHT22;23741;49.446;8.754;2024-02-16T05:04:20;14.60;69.20
37910;DHT22;23741;49.446;8.754;2024-02-16T05:06:22;14.50;69.10
37910;DHT22;23741;49.446;8.754;2024-02-16T05:08:25;14.50;69.20
37910;DHT22;23741;49.446;8.754;2024-02-16T05:10:26;14.50;69.10
37910;DHT22;23741;49.446;8.754;2024-02-16T05:12:28;14.50;69.20
37910;DHT22;23741;49.446;8.754;2024-02-16T05:14:31;14.50;69.10
37910;DHT22;23741;49.446;8.754;2024-02-16T05:16:32;14.50;69.10
37910;DHT22;23741;49.446;8.754;2024-02-16T05:18:34;14.50;69.10
37910;DHT22;23741;49.446;8.754;2024-02-16T05:20:36;14.50;69.20
37910;DHT22;23741;49.446;8.754;2024-02-16T05:22:38;14.50;69.20
37910;DHT22;23741;49.446;8.754;2024-02-16T05:24:40;14.50;69.20
37910;DHT22;23741;49.446;8.754;2024-02-16T05:26:41;14.50;69.20
37910;DHT22;23741;49.446;8.754;2024-02-16T05:28:43;14.50;69.20
37910;DHT22;23741;49.446;8.754;2024-02-16T05:30:45;14.50;69.20
37910;DHT22;23741;49.446;8.754;2024-02-16T05:32:47;14.40;69.10
37910;DHT22;23741;49.446;8.754;2024-02-16T05:34:50;14.40;69.00
37910;DHT22;23741;49.446;8.754;2024-02-16T05:36:52;14.40;69.00
37910;DHT22;23741;49.446;8.754;2024-02-16T05:38:54;14.40;69.00
37910;DHT22;23741;49.446;8.754;2024-02-16T05:40:58;14.40;69.00
37910;DHT22;23741;49.446;8.754;2024-02-16T05:43:00;14.40;69.30
37910;DHT22;23741;49.446;8.754;2024-02-16T05:45:01;14.30;69.30
37910;DHT22;23741;49.446;8.754;2024-02-16T05:47:03;14.30;69.20
37910;DHT22;23741;49.446;8.754;2024-02-16T05:49:05;14.30;69.20
37910;DHT22;23741;49.446;8.754;2024-02-16T05:51:07;14.30;69.20
37910;DHT22;23741;49.446;8.754;2024-02-16T05:53:10;14.30;69.40
37910;DHT22;23741;49.446;8.754;2024-02-16T05:55:12;14.30;69.50
37910;DHT22;23741;49.446;8.754;2024-02-16T05:57:15;14.30;69.50
37910;DHT22;23741;49.446;8.754;2024-02-16T05:59:17;14.30;69.50
37910;DHT22;23741;49.446;8.754;2024-02-16T06:01:19;14.30;69.50
37910;DHT22;23741;49.446;8.754;2024-02-16T06:03:21;14.30;69.50
37910;DHT22;23741;49.446;8.754;2024-02-16T06:05:23;14.30;69.50
37910;DHT22;23741;49.446;8.754;2024-02-16T06:07:25;14.30;69.50
37910;DHT22;23741;49.446;8.754;2024-02-16T06:09:27;14.30;69.60
37910;DHT22;23741;49.446;8.754;2024-02-16T06:11:38;14.30;69.50
37910;DHT22;23741;49.446;8.754;2024-02-16T06:13:40;14.30;69.50
37910;DHT22;23741;49.446;8.754;2024-02-16T06:15:42;14.30;69.50
37910;DHT22;23741;49.446;8.754;2024-02-16T06:17:44;14.30;69.50
37910;DHT22;23741;49.446;8.754;2024-02-16T06:19:47;14.30;69.50
37910;DHT22;23741;49.446;8.754;2024-02-16T06:21:49;14.40;69.50
37910;DHT22;23741;49.446;8.754;2024-02-16T06:23:51;14.30;69.50
37910;DHT22;23741;49.446;8.754;2024-02-16T06:25:53;14.30;69.50
37910;DHT22;23741;49.446;8.754;2024-02-16T06:27:55;14.30;69.50
37910;DHT22;23741;49.446;8.754;2024-02-16T06:29:57;14.30;69.50
37910;DHT22;23741;49.446;8.754;2024-02-16T06:31:58;14.30;69.40
37910;DHT22;23741;49.446;8.754;2024-02-16T06:34:00;14.30;69.50
37910;DHT22;23741;49.446;8.754;2024-02-16T06:36:02;14.30;69.50
37910;DHT22;23741;49.446;8.754;2024-02-16T06:38:04;14.30;69.40
37910;DHT22;23741;49.446;8.754;2024-02-16T06:40:06;14.30;69.40
37910;DHT22;23741;49.446;8.754;2024-02-16T06:42:10;14.30;69.40
37910;DHT22;23741;49.446;8.754;2024-02-16T06:44:16;14.30;69.40
37910;DHT22;23741;49.446;8.754;2024-02-16T06:46:20;14.30;69.30
37910;DHT22;23741;49.446;8.754;2024-02-16T06:48:22;14.30;69.20
37910;DHT22;23741;49.446;8.754;2024-02-16T06:50:24;14.30;69.30
37910;DHT22;23741;49.446;8.754;2024-02-16T06:52:26;14.30;69.40
37910;DHT22;23741;49.446;8.754;2024-02-16T06:54:28;14.30;69.40
37910;DHT22;23741;49.446;8.754;2024-02-16T06:56:31;14.30;69.40
37910;DHT22;23741;49.446;8.754;2024-02-16T06:58:33;14.30;69.40
37910;DHT22;23741;49.446;8.754;2024-02-16T07:00:35;14.30;69.40
37910;DHT22;23741;49.446;8.754;2024-02-16T07:02:37;14.30;69.40
37910;DHT22;23741;49.446;8.754;2024-02-16T07:04:39;14.30;69.50
37910;DHT22;23741;49.446;8.754;2024-02-16T07:06:41;14.30;69.50
37910;DHT22;23741;49.446;8.754;2024-02-16T07:08:44;14.30;69.50
37910;DHT22;23741;49.446;8.754;2024-02-16T07:10:46;14.30;69.50
37910;DHT22;23741;49.446;8.754;2024-02-16T07:12:49;14.30;69.50
37910;DHT22;23741;49.446;8.754;2024-02-16T07:14:51;14.30;69.50
37910;DHT22;23741;49.446;8.754;2024-02-16T07:16:53;14.30;69.50
37910;DHT22;23741;49.446;8.754;2024-02-16T07:18:55;14.30;69.50
37910;DHT22;23741;49.446;8.754;2024-02-16T07:20:57;14.30;69.50
37910;DHT22;23741;49.446;8.754;2024-02-16T07:23:00;14.30;69.40
37910;DHT22;23741;49.446;8.754;2024-02-16T07:25:02;14.30;69.50
37910;DHT22;23741;49.446;8.754;2024-02-16T07:27:07;14.40;69.40
37910;DHT22;23741;49.446;8.754;2024-02-16T07:29:09;14.40;69.50
37910;DHT22;23741;49.446;8.754;2024-02-16T07:31:11;14.30;69.50
37910;DHT22;23741;49.446;8.754;2024-02-16T07:33:13;14.40;69.60
37910;DHT22;23741;49.446;8.754;2024-02-16T07:35:15;14.40;69.50
37910;DHT22;23741;49.446;8.754;2024-02-16T07:37:16;14.40;69.70
37910;DHT22;23741;49.446;8.754;2024-02-16T07:39:19;14.40;69.80
37910;DHT22;23741;49.446;8.754;2024-02-16T07:41:24;14.40;69.70
37910;DHT22;23741;49.446;8.754;2024-02-16T07:43:26;14.50;69.80
37910;DHT22;23741;49.446;8.754;2024-02-16T07:45:29;14.50;69.90
37910;DHT22;23741;49.446;8.754;2024-02-16T07:47:31;14.50;69.90
37910;DHT22;23741;49.446;8.754;2024-02-16T07:49:33;14.50;69.90
37910;DHT22;23741;49.446;8.754;2024-02-16T07:51:35;14.50;69.90
37910;DHT22;23741;49.446;8.754;2024-02-16T07:53:37;14.60;70.10
37910;DHT22;23741;49.446;8.754;2024-02-16T07:55:42;14.60;70.10
37910;DHT22;23741;49.446;8.754;2024-02-16T07:57:44;14.70;70.20
37910;DHT22;23741;49.446;8.754;2024-02-16T07:59:49;14.70;70.10
37910;DHT22;23741;49.446;8.754;2024-02-16T08:01:51;14.80;70.10
37910;DHT22;23741;49.446;8.754;2024-02-16T08:03:53;14.80;70.10
37910;DHT22;23741;49.446;8.754;2024-02-16T08:05:56;14.80;70.10
37910;DHT22;23741;49.446;8.754;2024-02-16T08:07:58;14.80;70.90
37910;DHT22;23741;49.446;8.754;2024-02-16T08:10:00;14.80;70.00
37910;DHT22;23741;49.446;8.754;2024-02-16T08:12:02;14.90;70.10
37910;DHT22;23741;49.446;8.754;2024-02-16T08:14:07;14.90;70.10
37910;DHT22;23741;49.446;8.754;2024-02-16T08:16:09;14.90;70.10
37910;DHT22;23741;49.446;8.754;2024-02-16T08:18:12;15.00;70.20
37910;DHT22;23741;49.446;8.754;2024-02-16T08:20:15;14.90;70.10
37910;DHT22;23741;49.446;8.754;2024-02-16T08:22:17;15.00;70.20
37910;DHT22;23741;49.446;8.754;2024-02-16T08:24:18;15.00;70.10
37910;DHT22;23741;49.446;8.754;2024-02-16T08:26:20;15.10;70.20
37910;DHT22;23741;49.446;8.754;2024-02-16T08:28:23;15.10;70.40
37910;DHT22;23741;49.446;8.754;2024-02-16T08:30:25;15.10;70.50
37910;DHT22;23741;49.446;8.754;2024-02-16T08:32:27;15.10;70.50
37910;DHT22;23741;49.446;8.754;2024-02-16T08:34:29;15.10;70.40
37910;DHT22;23741;49.446;8.754;2024-02-16T08:36:31;15.10;70.40
37910;DHT22;23741;49.446;8.754;2024-02-16T08:38:33;15.10;70.50
37910;DHT22;23741;49.446;8.754;2024-02-16T08:40:35;15.10;70.70
37910;DHT22;23741;49.446;8.754;2024-02-16T08:42:37;15.10;70.70
37910;DHT22;23741;49.446;8.754;2024-02-16T08:44:39;15.10;70.70
37910;DHT22;23741;49.446;8.754;2024-02-16T08:46:42;15.10;70.80
37910;DHT22;23741;49.446;8.754;2024-02-16T08:48:44;15.10;70.90
37910;DHT22;23741;49.446;8.754;2024-02-16T08:50:47;15.10;71.00
37910;DHT22;23741;49.446;8.754;2024-02-16T08:52:49;15.10;71.00
37910;DHT22;23741;49.446;8.754;2024-02-16T08:54:51;15.10;71.00
37910;DHT22;23741;49.446;8.754;2024-02-16T08:56:53;15.10;71.00
37910;DHT22;23741;49.446;8.754;2024-02-16T08:58:56;15.10;71.00
37910;DHT22;23741;49.446;8.754;2024-02-16T09:00:58;15.20;71.10
37910;DHT22;23741;49.446;8.754;2024-02-16T09:03:00;15.20;71.00
37910;DHT22;23741;49.446;8.754;2024-02-16T09:05:04;15.20;71.00
37910;DHT22;23741;49.446;8.754;2024-02-16T09:07:07;15.20;71.00
37910;DHT22;23741;49.446;8.754;2024-02-16T09:09:09;15.20;71.00
37910;DHT22;23741;49.446;8.754;2024-02-16T09:11:12;15.20;71.00
37910;DHT22;23741;49.446;8.754;2024-02-16T09:13:15;15.20;71.00
37910;DHT22;23741;49.446;8.754;2024-02-16T09:15:25;15.20;71.00
37910;DHT22;23741;49.446;8.754;2024-02-16T09:17:27;15.20;70.90
37910;DHT22;23741;49.446;8.754;2024-02-16T09:19:29;15.20;71.00
37910;DHT22;23741;49.446;8.754;2024-02-16T09:21:31;15.20;71.00
37910;DHT22;23741;49.446;8.754;2024-02-16T09:23:33;15.20;71.00
37910;DHT22;23741;49.446;8.754;2024-02-16T09:25:35;15.30;70.60
37910;DHT22;23741;49.446;8.754;2024-02-16T09:27:38;15.30;70.40
37910;DHT22;23741;49.446;8.754;2024-02-16T09:29:42;15.30;70.50
37910;DHT22;23741;49.446;8.754;2024-02-16T09:31:44;15.30;70.40
37910;DHT22;23741;49.446;8.754;2024-02-16T09:33:46;15.30;70.40
37910;DHT22;23741;49.446;8.754;2024-02-16T09:35:48;15.30;70.40
37910;DHT22;23741;49.446;8.754;2024-02-16T09:37:50;15.40;70.40
37910;DHT22;23741;49.446;8.754;2024-02-16T09:39:52;15.40;70.50
37910;DHT22;23741;49.446;8.754;2024-02-16T09:41:55;15.50;70.60
37910;DHT22;23741;49.446;8.754;2024-02-16T09:43:57;15.50;70.40
37910;DHT22;23741;49.446;8.754;2024-02-16T09:45:59;15.50;71.10
37910;DHT22;23741;49.446;8.754;2024-02-16T09:48:02;15.60;70.10
37910;DHT22;23741;49.446;8.754;2024-02-16T09:50:09;15.60;69.70
37910;DHT22;23741;49.446;8.754;2024-02-16T09:52:12;15.60;69.70
37910;DHT22;23741;49.446;8.754;2024-02-16T09:54:14;15.70;69.70
37910;DHT22;23741;49.446;8.754;2024-02-16T09:56:16;15.70;69.80
37910;DHT22;23741;49.446;8.754;2024-02-16T09:58:18;15.80;69.70
37910;DHT22;23741;49.446;8.754;2024-02-16T10:00:20;15.80;69.40
37910;DHT22;23741;49.446;8.754;2024-02-16T10:02:22;15.80;69.40
37910;DHT22;23741;49.446;8.754;2024-02-16T10:04:24;15.90;69.30
37910;DHT22;23741;49.446;8.754;2024-02-16T10:06:29;15.90;69.30
37910;DHT22;23741;49.446;8.754;2024-02-16T10:08:32;16.00;69.40
37910;DHT22;23741;49.446;8.754;2024-02-16T10:10:34;16.00;69.30
37910;DHT22;23741;49.446;8.754;2024-02-16T10:12:39;16.00;69.20
37910;DHT22;23741;49.446;8.754;2024-02-16T10:14:40;16.00;69.10
37910;DHT22;23741;49.446;8.754;2024-02-16T10:16:43;16.10;69.10
37910;DHT22;23741;49.446;8.754;2024-02-16T10:18:45;16.10;69.30
37910;DHT22;23741;49.446;8.754;2024-02-16T10:20:47;16.20;69.10
37910;DHT22;23741;49.446;8.754;2024-02-16T10:22:50;16.20;68.90
37910;DHT22;23741;49.446;8.754;2024-02-16T10:24:52;16.20;68.90
37910;DHT22;23741;49.446;8.754;2024-02-16T10:26:54;16.20;68.80
37910;DHT22;23741;49.446;8.754;2024-02-16T10:28:58;16.30;68.80
37910;DHT22;23741;49.446;8.754;2024-02-16T10:31:00;16.30;68.70
37910;DHT22;23741;49.446;8.754;2024-02-16T10:33:07;16.30;68.50
37910;DHT22;23741;49.446;8.754;2024-02-16T10:35:09;16.40;68.60
37910;DHT22;23741;49.446;8.754;2024-02-16T10:37:12;16.40;68.60
37910;DHT22;23741;49.446;8.754;2024-02-16T10:39:14;16.50;68.60
37910;DHT22;23741;49.446;8.754;2024-02-16T10:41:21;16.50;68.60
37910;DHT22;23741;49.446;8.754;2024-02-16T10:43:23;16.50;68.60
37910;DHT22;23741;49.446;8.754;2024-02-16T10:45:25;16.60;68.70
37910;DHT22;23741;49.446;8.754;2024-02-16T10:47:27;16.60;68.60
37910;DHT22;23741;49.446;8.754;2024-02-16T10:49:30;16.70;68.70
37910;DHT22;23741;49.446;8.754;2024-02-16T10:51:45;16.70;68.80
37910;DHT22;23741;49.446;8.754;2024-02-16T10:53:47;16.80;69.30
37910;DHT22;23741;49.446;8.754;2024-02-16T10:55:52;16.90;69.10
37910;DHT22;23741;49.446;8.754;2024-02-16T10:57:55;17.00;69.00
37910;DHT22;23741;49.446;8.754;2024-02-16T10:59:58;17.10;69.20
37910;DHT22;23741;49.446;8.754;2024-02-16T11:02:00;17.10;69.20
37910;DHT22;23741;49.446;8.754;2024-02-16T11:04:03;17.20;69.00
37910;DHT22;23741;49.446;8.754;2024-02-16T11:06:13;17.30;69.10
37910;DHT22;23741;49.446;8.754;2024-02-16T11:08:17;17.40;69.10
37910;DHT22;23741;49.446;8.754;2024-02-16T11:10:19;17.50;69.00
37910;DHT22;23741;49.446;8.754;2024-02-16T11:12:21;17.70;69.10
37910;DHT22;23741;49.446;8.754;2024-02-16T11:14:23;17.80;69.00
37910;DHT22;23741;49.446;8.754;2024-02-16T11:16:26;17.80;68.90
37910;DHT22;23741;49.446;8.754;2024-02-16T11:18:32;17.90;68.60
37910;DHT22;23741;49.446;8.754;2024-02-16T11:20:37;18.00;68.70
37910;DHT22;23741;49.446;8.754;2024-02-16T11:22:41;18.10;68.10
37910;DHT22;23741;49.446;8.754;2024-02-16T11:24:43;18.20;68.00
37910;DHT22;23741;49.446;8.754;2024-02-16T11:26:46;18.20;68.40
37910;DHT22;23741;49.446;8.754;2024-02-16T11:28:48;18.20;67.80
37910;DHT22;23741;49.446;8.754;2024-02-16T11:30:50;18.30;67.60
37910;DHT22;23741;49.446;8.754;2024-02-16T11:32:55;18.30;67.50
37910;DHT22;23741;49.446;8.754;2024-02-16T11:35:04;18.40;67.00
37910;DHT22;23741;49.446;8.754;2024-02-16T11:37:06;18.40;67.10
37910;DHT22;23741;49.446;8.754;2024-02-16T11:39:13;18.40;66.70
37910;DHT22;23741;49.446;8.754;2024-02-16T11:41:18;18.40;67.40
37910;DHT22;23741;49.446;8.754;2024-02-16T11:43:23;18.40;66.80
37910;DHT22;23741;49.446;8.754;2024-02-16T11:45:25;18.50;66.70
37910;DHT22;23741;49.446;8.754;2024-02-16T11:47:28;18.50;66.50
37910;DHT22;23741;49.446;8.754;2024-02-16T11:49:31;18.50;66.60
37910;DHT22;23741;49.446;8.754;2024-02-16T11:51:33;18.50;66.60
37910;DHT22;23741;49.446;8.754;2024-02-16T11:53:35;18.50;66.70
37910;DHT22;23741;49.446;8.754;2024-02-16T11:55:37;18.60;66.90
37910;DHT22;23741;49.446;8.754;2024-02-16T11:57:39;18.60;66.80
37910;DHT22;23741;49.446;8.754;2024-02-16T11:59:41;18.60;67.40
37910;DHT22;23741;49.446;8.754;2024-02-16T12:01:54;18.70;66.60
37910;DHT22;23741;49.446;8.754;2024-02-16T12:03:56;18.80;66.90
37910;DHT22;23741;49.446;8.754;2024-02-16T12:05:58;18.80;67.00
37910;DHT22;23741;49.446;8.754;2024-02-16T12:08:01;18.90;67.00
37910;DHT22;23741;49.446;8.754;2024-02-16T12:10:03;19.00;67.00
37910;DHT22;23741;49.446;8.754;2024-02-16T12:12:08;19.00;66.00
37910;DHT22;23741;49.446;8.754;2024-02-16T12:14:10;19.00;65.80
37910;DHT22;23741;49.446;8.754;2024-02-16T12:16:12;19.10;65.80
37910;DHT22;23741;49.446;8.754;2024-02-16T12:18:23;19.10;65.90
37910;DHT22;23741;49.446;8.754;2024-02-16T12:20:25;19.10;65.90
37910;DHT22;23741;49.446;8.754;2024-02-16T12:22:27;19.20;66.10
37910;DHT22;23741;49.446;8.754;2024-02-16T12:24:29;19.20;66.70
37910;DHT22;23741;49.446;8.754;2024-02-16T12:26:31;19.20;66.00
37910;DHT22;23741;49.446;8.754;2024-02-16T12:28:33;19.30;65.90
37910;DHT22;23741;49.446;8.754;2024-02-16T12:30:35;19.30;66.00
37910;DHT22;23741;49.446;8.754;2024-02-16T12:32:38;19.30;65.70
37910;DHT22;23741;49.446;8.754;2024-02-16T12:34:40;19.30;66.50
37910;DHT22;23741;49.446;8.754;2024-02-16T12:36:42;19.30;65.50
37910;DHT22;23741;49.446;8.754;2024-02-16T12:38:49;19.30;65.30
37910;DHT22;23741;49.446;8.754;2024-02-16T12:40:51;19.40;65.70
37910;DHT22;23741;49.446;8.754;2024-02-16T12:42:53;19.30;65.40
37910;DHT22;23741;49.446;8.754;2024-02-16T12:44:55;19.30;65.00
37910;DHT22;23741;49.446;8.754;2024-02-16T12:46:57;19.30;64.80
37910;DHT22;23741;49.446;8.754;2024-02-16T12:48:59;19.30;65.00
37910;DHT22;23741;49.446;8.754;2024-02-16T12:51:01;19.40;65.00
37910;DHT22;23741;49.446;8.754;2024-02-16T12:53:03;19.40;65.00